Time;durP1;ratioP1;P1;durP2;ratioP2;P2;SDS_P1;SDS_P2;PMS_P1;PMS_P2;Temp;Humidity;BMP_temperature;BMP_pressure;BME280_temperature;BME280_humidity;BME280_pressure;Samples;Min_cycle;Max_cycle;Signal;HPM_P1;HPM_P2
2021/12/24 00:00:07;;;;;;;6.95;5.10;;;20.00;44.80;;;;;;6216055;28;20050;-74
2021/12/24 00:03:08;;;;;;;7.25;5.13;;;20.00;44.90;;;;;;6215768;28;20018;-74
2021/12/24 00:06:09;;;;;;;7.90;5.03;;;20.00;44.90;;;;;;6200571;28;20121;-74
2021/12/24 00:09:10;;;;;;;6.95;4.68;;;20.00;45.00;;;;;;6218771;28;20477;-75
2021/12/24 00:12:18;;;;;;;6.32;4.55;;;20.00;45.00;;;;;;6219126;28;20026;-73
2021/12/24 00:15:47;;;;;;;5.45;4.38;;;20.00;45.00;;;;;;6215308;28;20471;-74
2021/12/24 00:18:50;;;;;;;6.18;4.63;;;20.00;45.00;;;;;;6218380;28;20132;-74
2021/12/24 00:35:11;;;;;;;6.70;4.75;;;20.00;45.00;;;;;;6205390;28;20081;-75
2021/12/24 00:38:11;;;;;;;5.80;4.72;;;20.00;45.00;;;;;;6200735;28;20204;-74
2021/12/24 00:41:13;;;;;;;6.35;4.50;;;20.00;45.10;;;;;;6218449;28;20026;-74
2021/12/24 00:44:13;;;;;;;5.93;4.60;;;20.00;45.00;;;;;;6200986;28;20045;-74
2021/12/24 00:47:14;;;;;;;5.47;4.40;;;20.00;45.00;;;;;;6222600;28;20026;-74
2021/12/24 00:50:20;;;;;;;5.78;4.28;;;20.00;45.10;;;;;;6209009;28;20396;-74
2021/12/24 00:56:31;;;;;;;6.47;4.57;;;20.00;45.10;;;;;;6223031;28;20075;-74
2021/12/24 00:59:32;;;;;;;6.47;4.50;;;20.00;45.00;;;;;;6222430;28;20049;-74
2021/12/24 01:02:33;;;;;;;5.20;4.00;;;20.00;45.10;;;;;;6222620;28;20083;-74
2021/12/24 01:05:34;;;;;;;6.30;4.40;;;20.00;45.10;;;;;;6222624;28;20112;-74
2021/12/24 01:08:35;;;;;;;5.80;4.35;;;20.00;45.10;;;;;;6222101;28;20104;-74
2021/12/24 01:11:35;;;;;;;6.18;4.68;;;20.00;45.10;;;;;;6222423;28;20033;-74
2021/12/24 01:14:36;;;;;;;6.22;4.50;;;20.00;45.10;;;;;;6219334;28;20447;-74
2021/12/24 01:17:43;;;;;;;6.28;4.45;;;20.00;45.10;;;;;;6222343;28;20057;-74
2021/12/24 01:20:49;;;;;;;6.88;4.63;;;20.00;45.10;;;;;;6221971;28;20365;-74
2021/12/24 01:23:53;;;;;;;5.45;4.15;;;20.00;45.10;;;;;;6222055;28;20042;-74
2021/12/24 01:27:12;;;;;;;6.78;4.80;;;20.00;45.20;;;;;;6222131;28;20045;-74
2021/12/24 01:40:52;;;;;;;6.53;4.35;;;20.00;45.20;;;;;;6221922;28;20105;-73
2021/12/24 01:43:15;;;;;;;5.80;4.15;;;20.00;45.20;;;;;;6200701;28;20042;-75
2021/12/24 01:46:16;;;;;;;6.07;4.20;;;20.00;45.20;;;;;;6211541;28;20037;-75
2021/12/24 01:49:16;;;;;;;5.75;4.40;;;20.00;45.30;;;;;;6221478;28;20066;-75
2021/12/24 01:52:17;;;;;;;5.63;4.20;;;20.00;45.20;;;;;;6200981;28;20472;-74
2021/12/24 01:55:19;;;;;;;5.95;4.25;;;20.00;45.20;;;;;;6220537;28;20098;-75
2021/12/24 01:58:21;;;;;;;5.43;4.13;;;20.00;45.20;;;;;;6221361;28;20049;-74
2021/12/24 02:01:27;;;;;;;4.75;3.55;;;20.00;45.30;;;;;;6220794;28;20068;-75
2021/12/24 02:04:28;;;;;;;;;;;20.00;45.30;;;;;;6222283;28;20025;-74
2021/12/24 02:07:28;;;;;;;5.50;4.07;;;20.00;45.30;;;;;;6221283;28;19977;-73
2021/12/24 02:10:29;;;;;;;5.30;4.28;;;20.00;45.20;;;;;;6220982;28;20028;-74
2021/12/24 02:13:30;;;;;;;5.47;4.20;;;20.00;45.30;;;;;;6220671;28;20080;-74
2021/12/24 02:16:45;;;;;;;5.32;4.13;;;20.00;45.30;;;;;;6221087;28;20029;-74
2021/12/24 02:29:48;;;;;;;5.25;3.90;;;20.00;45.40;;;;;;6220942;28;20029;-74
2021/12/24 02:32:48;;;;;;;4.93;3.85;;;20.00;45.40;;;;;;6169120;28;20054;-74
2021/12/24 02:35:49;;;;;;;4.57;3.65;;;20.00;45.40;;;;;;6212549;28;20030;-74
2021/12/24 02:38:51;;;;;;;5.13;3.47;;;20.00;45.40;;;;;;6220498;28;20026;-74
2021/12/24 02:41:51;;;;;;;4.28;3.38;;;20.00;45.40;;;;;;6218073;28;20034;-74
2021/12/24 02:44:52;;;;;;;4.85;3.85;;;20.00;45.30;;;;;;6203245;28;20354;-74
2021/12/24 02:54:24;;;;;;;5.78;3.90;;;19.90;45.30;;;;;;6219583;28;20396;-74
2021/12/24 02:57:27;;;;;;;5.40;3.78;;;20.00;45.40;;;;;;6219923;28;20033;-74
2021/12/24 03:00:29;;;;;;;4.30;3.55;;;19.90;45.30;;;;;;6201744;28;20084;-74
2021/12/24 03:03:30;;;;;;;4.75;3.78;;;20.00;45.40;;;;;;6213762;28;20131;-74
2021/12/24 03:06:36;;;;;;;4.90;3.90;;;20.00;45.40;;;;;;6195615;28;20033;-75
2021/12/24 03:09:37;;;;;;;4.82;3.75;;;20.00;45.40;;;;;;6206533;28;20034;-74
2021/12/24 03:12:39;;;;;;;4.78;3.33;;;20.00;45.40;;;;;;6219926;28;20037;-74
2021/12/24 03:15:40;;;;;;;4.68;3.70;;;19.90;45.40;;;;;;6219404;28;20101;-74
2021/12/24 03:18:42;;;;;;;4.30;3.47;;;20.00;45.50;;;;;;6219611;28;20026;-74
2021/12/24 03:21:56;;;;;;;4.72;3.78;;;19.90;45.40;;;;;;6219985;28;20113;-74
2021/12/24 03:24:56;;;;;;;7.07;3.20;;;19.90;45.40;;;;;;6214313;28;20494;-74
2021/12/24 03:27:57;;;;;;;4.30;3.38;;;19.90;45.40;;;;;;6195152;28;20048;-75
2021/12/24 03:30:59;;;;;;;5.25;4.03;;;19.90;45.50;;;;;;6200593;28;20031;-74
2021/12/24 03:34:00;;;;;;;5.00;3.97;;;19.90;45.40;;;;;;6192521;28;20502;-75
2021/12/24 03:37:03;;;;;;;3.70;3.17;;;19.90;45.40;;;;;;6219310;28;20235;-75
2021/12/24 03:40:04;;;;;;;4.50;3.58;;;19.90;45.50;;;;;;6219146;28;20025;-74
2021/12/24 03:43:05;;;;;;;4.45;3.63;;;19.90;45.50;;;;;;6207028;28;20033;-74
2021/12/24 03:46:10;;;;;;;4.65;3.30;;;19.90;45.50;;;;;;6213068;28;20030;-74
2021/12/24 03:49:20;;;;;;;4.68;3.40;;;19.90;45.50;;;;;;6219429;28;20112;-73
2021/12/24 03:52:39;;;;;;;4.55;3.40;;;19.90;45.40;;;;;;6219103;28;20168;-73
2021/12/24 03:55:39;;;;;;;5.00;3.38;;;19.90;45.50;;;;;;6218883;28;20030;-74
2021/12/24 03:58:40;;;;;;;4.32;3.30;;;19.90;45.40;;;;;;6218770;28;20465;-74
2021/12/24 04:01:41;;;;;;;4.47;3.45;;;19.90;45.50;;;;;;6219244;28;20034;-74
2021/12/24 04:04:42;;;;;;;3.47;2.88;;;19.90;45.50;;;;;;6218880;28;20606;-74
2021/12/24 04:07:42;;;;;;;4.00;3.20;;;19.90;45.50;;;;;;6194499;28;20030;-74
2021/12/24 04:10:43;;;;;;;4.53;3.55;;;19.90;45.50;;;;;;6212965;28;20068;-74
2021/12/24 04:13:43;;;;;;;3.75;3.08;;;19.90;45.60;;;;;;6218755;28;20026;-74
2021/12/24 04:16:44;;;;;;;4.13;3.17;;;19.90;45.50;;;;;;6218911;28;20022;-74
2021/12/24 04:26:22;;;;;;;4.20;3.13;;;19.90;45.60;;;;;;6223581;28;20358;-74
2021/12/24 04:29:23;;;;;;;4.35;3.22;;;19.90;45.60;;;;;;6224310;28;20040;-73
2021/12/24 04:32:33;;;;;;;4.60;3.20;;;19.90;45.60;;;;;;6193149;28;20038;-73
2021/12/24 04:35:44;;;;;;;3.55;2.75;;;19.90;45.60;;;;;;6213059;28;20029;-74
2021/12/24 04:52:28;;;;;;;4.15;3.30;;;19.90;45.60;;;;;;6222634;28;20208;-74
2021/12/24 05:05:42;;;;;;;4.35;3.08;;;19.90;45.70;;;;;;6199867;28;20042;-74
2021/12/24 05:08:50;;;;;;;4.03;3.10;;;19.90;45.70;;;;;;6222550;28;20694;-74
2021/12/24 05:11:51;;;;;;;3.25;2.67;;;19.90;45.70;;;;;;6222684;28;20017;-75
2021/12/24 05:14:51;;;;;;;3.63;2.88;;;19.90;45.60;;;;;;6222256;28;20087;-75
2021/12/24 05:18:08;;;;;;;3.83;2.88;;;19.90;45.70;;;;;;6222282;28;20276;-74
2021/12/24 05:24:30;;;;;;;3.47;2.50;;;19.90;45.50;;;;;;6222034;28;20435;-74
2021/12/24 05:27:31;;;;;;;3.45;2.65;;;19.90;45.40;;;;;;6221994;28;20034;-73
2021/12/24 05:30:31;;;;;;;2.83;2.38;;;20.00;45.50;;;;;;6217237;28;20023;-73
2021/12/24 05:33:32;;;;;;;3.25;2.60;;;20.00;45.40;;;;;;6199298;28;20034;-74
2021/12/24 05:36:32;;;;;;;3.75;2.67;;;20.00;45.40;;;;;;6204315;28;20022;-72
2021/12/24 05:39:34;;;;;;;3.55;2.65;;;20.00;45.30;;;;;;6220505;28;20033;-75
2021/12/24 05:42:35;;;;;;;3.53;2.80;;;20.00;45.30;;;;;;6213825;28;20416;-75
2021/12/24 05:45:36;;;;;;;3.47;2.70;;;20.00;45.30;;;;;;6197369;28;20050;-74
2021/12/24 05:48:37;;;;;;;2.90;2.40;;;20.00;45.20;;;;;;6221705;28;20034;-74
2021/12/24 05:51:37;;;;;;;3.35;2.60;;;20.00;45.30;;;;;;6203842;28;20053;-75
2021/12/24 05:54:38;;;;;;;3.03;2.53;;;20.00;45.20;;;;;;6221209;28;20106;-75
2021/12/24 05:57:39;;;;;;;3.05;2.40;;;20.00;45.20;;;;;;6221466;28;20052;-74
2021/12/24 06:00:41;;;;;;;3.50;2.60;;;20.00;45.20;;;;;;6221098;28;20419;-74
2021/12/24 06:03:42;;;;;;;3.78;2.78;;;20.00;45.20;;;;;;6181918;28;20041;-75
2021/12/24 06:06:42;;;;;;;2.90;2.40;;;20.00;45.20;;;;;;6197266;28;20117;-75
2021/12/24 06:09:43;;;;;;;2.42;1.92;;;20.00;45.20;;;;;;6209845;28;20435;-74
2021/12/24 06:12:43;;;;;;;3.10;2.35;;;20.00;45.20;;;;;;6221260;28;20033;-75
2021/12/24 06:15:46;;;;;;;2.55;2.05;;;20.00;45.30;;;;;;6220890;28;20152;-74
2021/12/24 06:18:47;;;;;;;2.67;2.28;;;20.00;45.20;;;;;;6203542;28;20036;-75
2021/12/24 06:21:48;;;;;;;2.88;2.22;;;20.00;45.30;;;;;;6221012;28;20025;-75
2021/12/24 06:24:48;;;;;;;2.40;2.10;;;20.00;45.30;;;;;;6221377;28;20370;-75
2021/12/24 06:27:49;;;;;;;3.00;2.30;;;20.10;45.50;;;;;;6221182;28;20400;-74
2021/12/24 06:30:50;;;;;;;3.63;2.53;;;20.10;45.50;;;;;;6214665;28;20521;-75
2021/12/24 06:33:51;;;;;;;3.00;2.40;;;20.10;45.50;;;;;;6198835;28;20129;-75
2021/12/24 06:36:53;;;;;;;2.58;2.10;;;20.10;45.60;;;;;;6220739;28;20032;-74
2021/12/24 06:39:55;;;;;;;2.70;2.20;;;20.10;45.60;;;;;;6220438;28;20055;-75
2021/12/24 06:42:55;;;;;;;2.53;2.15;;;20.10;45.60;;;;;;6209191;28;20045;-75
2021/12/24 06:45:57;;;;;;;2.55;2.17;;;20.10;45.60;;;;;;6208290;28;20026;-74
2021/12/24 06:48:57;;;;;;;2.55;2.20;;;20.10;45.60;;;;;;6197404;28;20046;-75
2021/12/24 06:51:59;;;;;;;2.58;2.00;;;20.10;45.70;;;;;;6220440;28;20026;-75
2021/12/24 06:54:59;;;;;;;2.92;2.15;;;20.10;45.60;;;;;;6220084;28;20030;-75
2021/12/24 06:58:00;;;;;;;3.40;2.60;;;20.10;45.70;;;;;;6220119;28;20503;-75
2021/12/24 07:01:00;;;;;;;3.17;2.30;;;20.10;45.70;;;;;;6197388;28;20086;-75
2021/12/24 07:04:01;;;;;;;2.97;2.20;;;20.10;45.70;;;;;;6200496;28;20034;-75
2021/12/24 07:07:02;;;;;;;2.97;2.40;;;20.10;45.70;;;;;;6182969;28;20104;-75
2021/12/24 07:10:04;;;;;;;2.60;2.20;;;20.10;45.70;;;;;;6184313;28;20480;-75
2021/12/24 07:13:05;;;;;;;4.13;2.38;;;20.10;45.70;;;;;;6207976;28;20057;-75
2021/12/24 07:16:05;;;;;;;2.95;2.17;;;20.10;45.70;;;;;;6217936;28;20157;-74
2021/12/24 07:19:06;;;;;;;4.28;2.40;;;20.10;45.80;;;;;;6208298;28;20034;-75
2021/12/24 07:22:07;;;;;;;2.92;2.33;;;20.10;45.80;;;;;;6197207;28;20037;-75
2021/12/24 07:25:08;;;;;;;3.08;2.03;;;20.10;45.80;;;;;;6206193;28;20057;-75
2021/12/24 07:28:09;;;;;;;3.97;2.22;;;20.10;46.50;;;;;;6204346;28;20496;-74
2021/12/24 07:31:09;;;;;;;2.70;2.20;;;20.10;45.80;;;;;;6208001;28;20041;-75
2021/12/24 07:34:10;;;;;;;2.83;1.90;;;20.10;45.80;;;;;;6207871;28;20040;-75
2021/12/24 07:37:11;;;;;;;2.90;2.25;;;20.10;45.80;;;;;;6214072;28;20022;-75
2021/12/24 07:40:15;;;;;;;3.58;2.35;;;20.10;45.90;;;;;;6205626;28;20038;-75
2021/12/24 07:43:15;;;;;;;2.95;2.22;;;20.10;45.90;;;;;;6209889;28;20022;-75
2021/12/24 07:46:16;;;;;;;2.42;1.80;;;20.10;45.90;;;;;;6213060;28;20056;-74
2021/12/24 07:52:23;;;;;;;2.25;2.00;;;20.10;46.00;;;;;;6202974;28;20045;-75
2021/12/24 07:55:23;;;;;;;2.65;2.03;;;20.10;46.00;;;;;;6201152;28;20369;-75
2021/12/24 07:58:24;;;;;;;3.10;1.88;;;20.20;46.00;;;;;;6200755;28;20029;-74
2021/12/24 08:01:26;;;;;;;3.03;2.10;;;20.10;46.00;;;;;;6194837;28;20129;-75
2021/12/24 08:04:26;;;;;;;2.80;2.28;;;20.10;46.00;;;;;;6192217;28;20038;-75
2021/12/24 08:07:27;;;;;;;2.95;2.17;;;20.20;46.10;;;;;;6194748;28;20037;-75
2021/12/24 08:10:30;;;;;;;5.00;2.45;;;20.20;46.10;;;;;;6207069;28;20083;-74
2021/12/24 08:13:31;;;;;;;3.60;2.88;;;20.20;46.10;;;;;;6204151;28;20352;-75
2021/12/24 08:16:32;;;;;;;5.47;4.20;;;20.20;46.10;;;;;;6202233;28;20030;-75
2021/12/24 08:19:33;;;;;;;9.75;7.28;;;20.20;46.10;;;;;;6216357;28;20312;-75
2021/12/24 08:22:34;;;;;;;12.82;10.15;;;20.20;46.00;;;;;;6218428;28;20642;-75
2021/12/24 08:25:35;;;;;;;17.00;14.18;;;20.20;46.00;;;;;;6214954;28;20037;-75
2021/12/24 08:28:35;;;;;;;16.27;13.15;;;20.20;46.00;;;;;;6215911;28;20468;-76
2021/12/24 08:31:37;;;;;;;19.63;16.83;;;20.20;45.90;;;;;;6206077;28;20026;-74
2021/12/24 08:34:38;;;;;;;22.42;19.45;;;20.20;45.90;;;;;;6210919;28;20045;-75
2021/12/24 08:37:40;;;;;;;23.88;20.83;;;20.20;46.00;;;;;;6211457;28;20109;-75
2021/12/24 08:40:41;;;;;;;33.50;28.38;;;20.30;46.10;;;;;;6218411;28;20081;-75
2021/12/24 08:43:41;;;;;;;33.50;27.05;;;20.30;46.10;;;;;;6214055;28;20108;-75
2021/12/24 08:46:42;;;;;;;35.30;29.15;;;20.30;46.00;;;;;;6218609;28;20028;-75
2021/12/24 08:49:42;;;;;;;35.45;29.67;;;20.30;46.00;;;;;;6205693;28;20034;-74
2021/12/24 08:52:44;;;;;;;30.92;25.48;;;20.30;46.10;;;;;;6218091;28;20030;-75
2021/12/24 08:55:45;;;;;;;30.58;25.67;;;20.30;46.10;;;;;;6194211;28;20026;-74
2021/12/24 08:58:45;;;;;;;32.72;27.65;;;20.30;46.10;;;;;;6196901;28;20547;-74
2021/12/24 09:01:46;;;;;;;30.70;26.58;;;20.30;46.10;;;;;;6196666;28;20049;-75
2021/12/24 09:04:46;;;;;;;36.28;30.02;;;20.30;46.20;;;;;;6184758;28;20053;-75
2021/12/24 09:07:47;;;;;;;36.67;28.67;;;20.20;46.10;;;;;;6181041;28;20669;-73
2021/12/24 09:10:48;;;;;;;67.53;30.30;;;20.40;47.30;;;;;;6204090;28;20030;-71
2021/12/24 09:13:49;;;;;;;48.95;32.20;;;20.70;47.10;;;;;;6218912;28;20072;-72
2021/12/24 09:16:49;;;;;;;37.75;27.92;;;20.70;46.00;;;;;;6197810;28;20025;-73
2021/12/24 09:19:52;;;;;;;38.63;28.90;;;20.50;46.10;;;;;;6213354;28;20488;-73
2021/12/24 09:22:54;;;;;;;33.63;27.98;;;20.50;46.30;;;;;;6222628;28;20028;-73
2021/12/24 09:25:55;;;;;;;46.13;29.30;;;20.40;46.50;;;;;;6213364;28;20488;-72
2021/12/24 09:28:56;;;;;;;56.25;29.55;;;20.60;46.90;;;;;;6200647;28;20324;-72
2021/12/24 09:31:56;;;;;;;44.15;29.77;;;20.60;46.20;;;;;;6197498;28;20603;-72
2021/12/24 09:34:57;;;;;;;40.53;28.77;;;20.60;46.20;;;;;;6221110;28;20088;-71
2021/12/24 09:37:58;;;;;;;39.35;27.90;;;20.50;46.30;;;;;;6219745;28;20049;-73
2021/12/24 09:41:01;;;;;;;44.80;29.58;;;20.50;46.30;;;;;;6220795;28;20029;-72
2021/12/24 09:44:03;;;;;;;49.42;26.83;;;20.60;46.40;;;;;;6216942;28;20030;-73
2021/12/24 09:47:04;;;;;;;43.70;28.02;;;20.60;46.30;;;;;;6215604;28;20042;-72
2021/12/24 09:50:07;;;;;;;42.47;27.30;;;20.60;46.20;;;;;;6208410;28;20030;-73
2021/12/24 09:53:08;;;;;;;38.60;28.55;;;20.60;46.20;;;;;;6217396;28;20380;-74
2021/12/24 09:56:09;;;;;;;35.55;25.98;;;20.60;46.20;;;;;;6214939;28;20041;-73
2021/12/24 09:59:09;;;;;;;39.83;26.75;;;20.60;46.10;;;;;;6210309;28;20050;-73
2021/12/24 10:02:16;;;;;;;38.85;28.00;;;20.60;46.50;;;;;;6219063;28;20072;-72
2021/12/24 10:05:23;;;;;;;36.45;25.75;;;20.60;46.40;;;;;;6194872;28;20061;-72
2021/12/24 10:08:26;;;;;;;39.92;26.38;;;20.60;46.40;;;;;;6208201;28;20033;-72
2021/12/24 10:11:29;;;;;;;41.45;25.77;;;20.60;46.40;;;;;;6198753;28;20014;-72
2021/12/24 10:14:33;;;;;;;36.00;25.02;;;20.60;46.50;;;;;;6211278;28;20037;-72
2021/12/24 10:17:35;;;;;;;33.95;25.90;;;20.50;46.40;;;;;;6207648;28;20053;-72
2021/12/24 10:20:36;;;;;;;29.45;24.75;;;20.50;46.40;;;;;;6202493;28;20029;-72
2021/12/24 10:23:40;;;;;;;28.65;24.00;;;20.50;46.40;;;;;;6206128;28;20388;-72
2021/12/24 10:26:44;;;;;;;29.80;24.60;;;20.50;46.40;;;;;;6198656;28;20538;-72
2021/12/24 10:29:44;;;;;;;32.40;25.15;;;20.50;46.40;;;;;;6205942;28;20042;-72
2021/12/24 10:32:45;;;;;;;27.52;23.13;;;20.50;46.50;;;;;;6205476;28;20045;-72
2021/12/24 10:36:00;;;;;;;31.30;24.65;;;20.50;46.50;;;;;;6204243;28;20113;-73
2021/12/24 10:39:01;;;;;;;26.50;23.13;;;20.50;46.50;;;;;;6216188;28;20050;-72
2021/12/24 10:42:05;;;;;;;25.00;21.40;;;20.50;46.50;;;;;;6205712;28;20042;-72
2021/12/24 10:45:16;;;;;;;28.37;22.30;;;20.50;46.50;;;;;;6205787;28;20030;-73
2021/12/24 10:48:19;;;;;;;27.30;22.05;;;20.50;46.60;;;;;;6214379;28;20034;-72
2021/12/24 10:51:41;;;;;;;26.95;22.73;;;20.50;46.60;;;;;;6215423;28;20026;-72
2021/12/24 10:54:54;;;;;;;26.00;21.13;;;20.50;46.60;;;;;;6204191;28;20057;-71
2021/12/24 10:57:56;;;;;;;24.80;20.45;;;20.50;46.60;;;;;;6204902;28;20042;-72
2021/12/24 11:00:59;;;;;;;25.23;20.23;;;20.50;46.60;;;;;;6203847;28;20073;-72
2021/12/24 11:04:00;;;;;;;24.70;20.85;;;20.50;46.70;;;;;;6207380;28;20394;-72
2021/12/24 11:07:00;;;;;;;23.05;19.85;;;20.50;46.60;;;;;;6194614;28;20042;-72
2021/12/24 11:10:22;;;;;;;23.20;19.55;;;20.50;46.70;;;;;;6197383;28;20030;-72
2021/12/24 11:13:32;;;;;;;24.98;20.85;;;20.50;46.70;;;;;;6213782;28;20504;-72
2021/12/24 11:16:33;;;;;;;22.48;20.00;;;20.50;46.70;;;;;;6197597;28;20607;-72
2021/12/24 11:19:52;;;;;;;23.50;20.02;;;20.50;46.70;;;;;;6218011;28;20105;-72
2021/12/24 11:23:05;;;;;;;22.25;19.55;;;20.50;46.70;;;;;;6218714;28;20476;-71
2021/12/24 11:26:18;;;;;;;20.80;18.10;;;20.50;46.70;;;;;;6217023;28;20029;-72
2021/12/24 11:29:19;;;;;;;21.75;18.30;;;20.50;46.70;;;;;;6212330;28;20331;-72
2021/12/24 11:32:20;;;;;;;20.58;18.27;;;20.40;46.70;;;;;;6202372;28;20029;-72
2021/12/24 11:35:22;;;;;;;21.63;19.23;;;20.50;46.70;;;;;;6206720;28;20537;-73
2021/12/24 11:38:26;;;;;;;21.40;18.88;;;20.50;46.70;;;;;;6209225;28;20412;-71
2021/12/24 11:41:31;;;;;;;20.83;18.55;;;20.50;46.70;;;;;;6201583;28;20034;-72
2021/12/24 11:44:31;;;;;;;20.73;18.17;;;20.50;46.70;;;;;;6201760;28;20026;-72
2021/12/24 11:47:33;;;;;;;20.20;18.10;;;20.40;46.70;;;;;;6214660;28;20061;-72
2021/12/24 11:50:35;;;;;;;20.30;18.10;;;20.50;46.70;;;;;;6215759;28;20677;-72
2021/12/24 11:53:37;;;;;;;18.23;16.20;;;20.50;46.80;;;;;;6204110;28;20113;-72
2021/12/24 11:56:43;;;;;;;18.95;16.95;;;20.50;46.70;;;;;;6194224;28;20022;-73
2021/12/24 11:59:45;;;;;;;18.77;16.77;;;20.50;46.80;;;;;;6203054;28;20419;-72
2021/12/24 12:02:46;;;;;;;19.00;16.95;;;20.50;46.80;;;;;;6213555;28;20046;-72
2021/12/24 12:05:46;;;;;;;17.25;15.45;;;20.50;46.80;;;;;;6191333;28;20105;-72
2021/12/24 12:08:49;;;;;;;17.08;15.10;;;20.40;46.70;;;;;;6202961;28;20401;-72
2021/12/24 12:11:58;;;;;;;18.75;15.77;;;20.50;46.80;;;;;;6206837;28;20037;-72
2021/12/24 12:15:24;;;;;;;17.48;15.68;;;20.50;46.80;;;;;;6214553;28;20029;-72
2021/12/24 12:18:30;;;;;;;16.77;14.32;;;20.50;46.80;;;;;;6206788;28;20084;-72
2021/12/24 12:21:51;;;;;;;16.33;14.63;;;20.50;46.80;;;;;;6206228;28;20018;-73
2021/12/24 12:25:09;;;;;;;16.80;15.00;;;20.40;46.80;;;;;;6213145;28;20034;-72
2021/12/24 12:28:15;;;;;;;15.00;13.48;;;20.50;46.80;;;;;;6209780;28;20141;-72
2021/12/24 12:31:19;;;;;;;15.77;14.18;;;20.50;46.80;;;;;;6205291;28;20034;-72
2021/12/24 12:34:48;;;;;;;16.38;14.65;;;20.50;46.80;;;;;;6215927;28;20093;-72
2021/12/24 12:37:54;;;;;;;13.82;12.43;;;20.50;46.80;;;;;;6200379;28;20079;-74
2021/12/24 12:41:25;;;;;;;16.13;13.52;;;20.50;46.80;;;;;;6212471;28;20499;-72
2021/12/24 12:44:26;;;;;;;15.05;12.95;;;20.50;46.90;;;;;;6208736;28;20024;-73
2021/12/24 12:47:28;;;;;;;16.75;12.57;;;20.50;47.10;;;;;;6222697;28;20135;-73
2021/12/24 12:50:29;;;;;;;15.55;13.38;;;20.50;47.30;;;;;;6220721;28;20117;-73
2021/12/24 12:53:34;;;;;;;17.77;13.35;;;20.50;46.80;;;;;;6221651;28;20084;-73
2021/12/24 12:56:35;;;;;;;;;;;20.50;46.80;;;;;;6212093;28;20084;-73
2021/12/24 12:59:35;;;;;;;18.40;12.75;;;20.50;46.70;;;;;;6217411;28;19917;-73
2021/12/24 13:03:06;;;;;;;14.00;11.38;;;20.50;46.80;;;;;;6206801;28;20034;-73
2021/12/24 13:06:08;;;;;;;14.80;13.15;;;20.50;46.80;;;;;;6207387;28;20022;-72
2021/12/24 13:09:20;;;;;;;12.55;11.25;;;20.50;46.90;;;;;;6207979;28;20128;-74
2021/12/24 13:12:21;;;;;;;13.20;11.65;;;20.50;46.90;;;;;;6210687;28;20036;-73
2021/12/24 13:15:22;;;;;;;12.77;11.40;;;20.50;46.90;;;;;;6194518;28;20034;-72
2021/12/24 13:18:28;;;;;;;15.90;11.73;;;20.50;46.90;;;;;;6217326;28;20038;-73
2021/12/24 13:24:51;;;;;;;13.93;10.95;;;20.50;46.90;;;;;;6215201;28;20460;-72
2021/12/24 13:27:54;;;;;;;12.10;10.45;;;20.50;47.00;;;;;;6213853;28;20042;-72
2021/12/24 13:30:55;;;;;;;15.57;10.80;;;20.50;47.00;;;;;;6212381;28;20165;-73
2021/12/24 13:33:56;;;;;;;11.57;10.38;;;20.50;47.00;;;;;;6217211;28;20030;-72
2021/12/24 13:37:02;;;;;;;12.75;10.55;;;20.50;47.00;;;;;;6191030;28;20106;-72
2021/12/24 13:40:08;;;;;;;12.20;10.15;;;20.50;47.00;;;;;;6214104;28;20084;-73
2021/12/24 13:43:12;;;;;;;12.52;9.70;;;20.50;47.00;;;;;;6182783;28;20022;-72
2021/12/24 13:46:14;;;;;;;10.70;9.60;;;20.50;47.00;;;;;;6211864;28;20033;-71
2021/12/24 13:49:33;;;;;;;11.00;9.82;;;20.50;47.00;;;;;;6215747;28;20045;-72
2021/12/24 13:56:04;;;;;;;11.68;10.10;;;20.50;47.00;;;;;;6202840;28;20026;-72
2021/12/24 13:59:06;;;;;;;11.07;8.90;;;20.50;47.00;;;;;;6204699;28;20463;-72
2021/12/24 14:02:11;;;;;;;11.48;8.73;;;20.50;47.00;;;;;;6218164;28;20026;-72
2021/12/24 14:05:12;;;;;;;11.20;8.95;;;20.50;47.00;;;;;;6201945;28;20034;-73
2021/12/24 14:08:21;;;;;;;9.75;8.75;;;20.50;47.00;;;;;;6195690;28;20050;-72
2021/12/24 14:11:28;;;;;;;9.23;8.32;;;20.50;47.00;;;;;;6211857;28;20034;-73
2021/12/24 14:14:47;;;;;;;9.60;8.60;;;20.50;47.00;;;;;;6218985;28;20026;-72
2021/12/24 14:18:04;;;;;;;9.05;8.15;;;20.50;47.00;;;;;;6205026;28;20026;-74
2021/12/24 14:24:27;;;;;;;13.48;8.43;;;20.60;47.00;;;;;;6204521;28;20033;-73
2021/12/24 14:27:31;;;;;;;11.00;8.23;;;20.60;47.10;;;;;;6206029;28;20075;-73
2021/12/24 14:30:31;;;;;;;9.38;8.48;;;20.60;47.00;;;;;;6204821;28;20023;-72
2021/12/24 14:33:38;;;;;;;10.75;7.70;;;20.60;46.90;;;;;;6204222;28;20439;-73
2021/12/24 14:37:02;;;;;;;10.07;7.85;;;20.60;47.00;;;;;;6207849;28;20030;-73
2021/12/24 14:40:06;;;;;;;11.25;7.43;;;20.60;46.90;;;;;;6203496;28;20033;-74
2021/12/24 14:43:12;;;;;;;8.55;7.65;;;20.60;47.00;;;;;;6198336;28;20026;-73
2021/12/24 14:46:12;;;;;;;8.40;7.50;;;20.60;46.90;;;;;;6213783;28;20463;-73
2021/12/24 14:49:13;;;;;;;7.93;7.13;;;20.50;46.90;;;;;;6199954;28;20042;-73
2021/12/24 14:52:21;;;;;;;8.43;7.15;;;20.60;47.00;;;;;;6219369;28;20495;-74
2021/12/24 14:55:23;;;;;;;9.52;7.43;;;20.50;47.00;;;;;;6206403;28;20493;-73
2021/12/24 14:58:49;;;;;;;8.63;7.00;;;20.50;47.00;;;;;;6202883;28;20072;-72
2021/12/24 15:01:57;;;;;;;8.20;6.38;;;20.50;47.00;;;;;;6193995;28;20054;-73
2021/12/24 15:04:58;;;;;;;8.95;7.28;;;20.50;47.10;;;;;;6207044;28;20520;-73
2021/12/24 15:08:00;;;;;;;9.18;6.80;;;20.50;47.10;;;;;;6199363;28;20084;-73
2021/12/24 15:11:04;;;;;;;7.50;6.68;;;20.50;47.00;;;;;;6213698;28;20432;-73
2021/12/24 15:14:08;;;;;;;9.23;6.78;;;20.50;47.10;;;;;;6219449;28;20021;-74
2021/12/24 15:17:09;;;;;;;9.18;6.75;;;20.50;47.10;;;;;;6186480;28;20052;-73
2021/12/24 15:20:11;;;;;;;10.63;7.10;;;20.50;47.10;;;;;;6212830;28;20029;-73
2021/12/24 15:23:14;;;;;;;9.77;5.68;;;20.50;47.20;;;;;;6194421;28;20026;-73
2021/12/24 15:26:15;;;;;;;7.25;6.13;;;20.50;47.30;;;;;;6211104;28;20026;-73
2021/12/24 15:29:16;;;;;;;7.90;6.05;;;20.50;47.30;;;;;;6218546;28;20117;-72
2021/12/24 15:32:17;;;;;;;7.88;5.95;;;20.50;47.30;;;;;;6204379;28;20033;-73
2021/12/24 15:35:17;;;;;;;7.65;5.80;;;20.50;47.30;;;;;;6219168;28;20030;-72
2021/12/24 15:38:18;;;;;;;7.35;6.53;;;20.50;47.30;;;;;;6189202;28;20078;-73
2021/12/24 15:41:18;;;;;;;7.70;5.75;;;20.50;47.30;;;;;;6204450;28;20034;-73
2021/12/24 15:44:19;;;;;;;6.30;5.35;;;20.50;47.30;;;;;;6195702;28;20068;-73
2021/12/24 15:47:20;;;;;;;7.82;5.68;;;20.50;47.30;;;;;;6195875;28;20584;-73
2021/12/24 15:50:20;;;;;;;6.13;5.53;;;20.50;47.30;;;;;;6197604;28;20022;-72
2021/12/24 15:53:22;;;;;;;6.50;5.53;;;20.50;47.30;;;;;;6210260;28;20033;-72
2021/12/24 15:56:22;;;;;;;7.53;5.25;;;20.50;47.40;;;;;;6194891;28;20275;-73
2021/12/24 15:59:24;;;;;;;5.80;5.20;;;20.50;47.30;;;;;;6206026;28;20532;-73
2021/12/24 16:02:25;;;;;;;5.03;4.60;;;20.50;47.30;;;;;;6193439;28;20466;-72
2021/12/24 16:05:25;;;;;;;5.82;5.10;;;20.60;47.50;;;;;;6197630;28;20033;-73
2021/12/24 16:08:26;;;;;;;8.55;5.88;;;20.60;47.50;;;;;;6195702;28;20511;-73
2021/12/24 16:11:26;;;;;;;6.85;4.68;;;20.60;47.50;;;;;;6205294;28;20118;-73
2021/12/24 16:14:27;;;;;;;11.60;5.15;;;20.60;47.50;;;;;;6215924;28;20026;-73
2021/12/24 16:17:28;;;;;;;7.35;5.30;;;20.60;47.60;;;;;;6220433;28;20519;-72
2021/12/24 16:20:29;;;;;;;8.57;5.22;;;20.60;47.90;;;;;;6220110;28;20125;-73
2021/12/24 16:23:29;;;;;;;10.27;5.97;;;20.60;48.20;;;;;;6213079;28;20040;-72
2021/12/24 16:26:30;;;;;;;12.05;5.65;;;20.60;48.50;;;;;;6210789;28;20022;-73
2021/12/24 16:29:44;;;;;;;10.32;5.97;;;20.60;48.90;;;;;;6220030;28;20030;-73
2021/12/24 16:32:46;;;;;;;10.90;5.35;;;20.60;50.50;;;;;;6207812;28;20022;-74
2021/12/24 16:35:47;;;;;;;13.48;5.50;;;20.60;49.00;;;;;;6220925;28;20109;-73
2021/12/24 16:38:47;;;;;;;9.30;6.00;;;20.70;49.70;;;;;;6198195;28;20473;-73
2021/12/24 16:41:48;;;;;;;10.68;5.40;;;20.70;49.90;;;;;;6210735;28;20045;-73
2021/12/24 16:44:48;;;;;;;9.82;5.75;;;20.70;49.80;;;;;;6207688;28;20026;-72
2021/12/24 16:47:49;;;;;;;10.13;5.70;;;20.70;50.60;;;;;;6215302;28;20100;-73
2021/12/24 16:50:50;;;;;;;11.63;6.10;;;20.70;49.90;;;;;;6221489;28;20030;-73
2021/12/24 16:53:51;;;;;;;8.57;5.57;;;20.70;50.00;;;;;;6216819;28;20049;-73
2021/12/24 16:56:51;;;;;;;6.95;5.78;;;20.70;50.60;;;;;;6206404;28;20026;-73
2021/12/24 16:59:52;;;;;;;8.68;6.47;;;20.80;50.50;;;;;;6210387;28;20058;-74
2021/12/24 17:02:54;;;;;;;9.55;5.80;;;20.80;50.20;;;;;;6205005;28;20839;-74
2021/12/24 17:05:54;;;;;;;8.07;5.43;;;20.90;50.20;;;;;;6206728;28;20436;-73
2021/12/24 17:08:55;;;;;;;9.68;5.85;;;20.90;50.10;;;;;;6208347;28;20045;-73
2021/12/24 17:11:55;;;;;;;7.13;5.68;;;20.90;50.00;;;;;;6218944;28;20072;-73
2021/12/24 17:14:59;;;;;;;8.80;5.50;;;20.90;49.80;;;;;;6208439;28;20034;-73